Time;durP1;ratioP1;P1;durP2;ratioP2;P2;SDS_P1;SDS_P2;PMS_P1;PMS_P2;Temp;Humidity;BMP_temperature;BMP_pressure;BME280_temperature;BME280_humidity;BME280_pressure;Samples;Min_cycle;Max_cycle;Signal;HPM_P1;HPM_P2
2023/01/07 00:01:07;;;;;;;5.43;4.27;;;;;;;;;;5078157;28;20237;-58
2023/01/07 00:03:37;;;;;;;5.30;4.10;;;;;;;;;;5077729;28;20234;-58
2023/01/07 00:06:05;;;;;;;6.57;4.00;;;;;;;;;;5077549;28;20232;-58
2023/01/07 00:08:34;;;;;;;6.47;3.97;;;;;;;;;;5077893;28;20248;-58
2023/01/07 00:11:02;;;;;;;4.23;3.63;;;;;;;;;;5078008;28;20688;-59
2023/01/07 00:13:30;;;;;;;7.00;4.80;;;;;;;;;;5077981;28;20237;-58
2023/01/07 00:15:59;;;;;;;6.07;3.80;;;;;;;;;;5077814;28;20715;-58
2023/01/07 00:18:27;;;;;;;4.03;3.60;;;;;;;;;;5077878;28;20222;-58
2023/01/07 00:20:58;;;;;;;3.97;3.47;;;;;;;;;;5073651;28;20233;-58
2023/01/07 00:23:26;;;;;;;4.57;3.87;;;;;;;;;;5077477;28;20232;-58
2023/01/07 00:26:00;;;;;;;4.87;3.90;;;;;;;;;;5074360;28;20304;-58
2023/01/07 00:28:28;;;;;;;9.50;3.57;;;;;;;;;;5077513;28;20281;-58
2023/01/07 00:30:59;;;;;;;4.83;4.07;;;;;;;;;;5077797;28;20208;-58
2023/01/07 00:33:28;;;;;;;4.70;4.17;;;;;;;;;;5077399;28;20593;-58
2023/01/07 00:36:02;;;;;;;6.43;3.87;;;;;;;;;;5077411;28;20198;-58
2023/01/07 00:38:30;;;;;;;4.40;3.90;;;;;;;;;;5077719;28;20225;-58
2023/01/07 00:40:58;;;;;;;5.97;3.30;;;;;;;;;;5077672;28;20246;-58
2023/01/07 00:43:26;;;;;;;4.93;3.67;;;;;;;;;;5077450;28;20305;-58
2023/01/07 00:45:54;;;;;;;4.90;4.07;;;;;;;;;;5077823;28;20202;-58
2023/01/07 00:48:22;;;;;;;3.57;3.23;;;;;;;;;;5078001;28;20244;-58
2023/01/07 00:50:51;;;;;;;4.20;3.67;;;;;;;;;;5077514;28;20209;-58
2023/01/07 00:53:21;;;;;;;6.33;4.03;;;;;;;;;;5077880;28;20283;-59
2023/01/07 00:55:49;;;;;;;4.60;4.20;;;;;;;;;;5080171;28;20226;-58
2023/01/07 00:58:19;;;;;;;4.87;4.13;;;;;;;;;;5081457;28;20232;-58
2023/01/07 01:00:47;;;;;;;7.87;4.50;;;;;;;;;;5081481;28;20606;-58
2023/01/07 01:03:16;;;;;;;5.07;4.57;;;;;;;;;;5081494;28;20705;-58
2023/01/07 01:05:44;;;;;;;5.53;4.90;;;;;;;;;;5081436;28;20238;-58
2023/01/07 01:08:12;;;;;;;5.90;5.30;;;;;;;;;;5081380;28;20202;-58
2023/01/07 01:10:41;;;;;;;7.40;5.07;;;;;;;;;;5081500;28;20238;-58
2023/01/07 01:13:10;;;;;;;7.17;6.47;;;;;;;;;;5080058;28;20621;-58
2023/01/07 01:15:41;;;;;;;6.33;5.60;;;;;;;;;;5068536;28;20673;-58
2023/01/07 01:18:10;;;;;;;5.53;5.03;;;;;;;;;;5081607;28;20230;-58
2023/01/07 01:20:38;;;;;;;7.37;6.40;;;;;;;;;;5081108;28;20208;-59
2023/01/07 01:23:06;;;;;;;8.47;6.70;;;;;;;;;;5080966;28;20689;-58
2023/01/07 01:25:34;;;;;;;9.40;6.13;;;;;;;;;;5080944;28;20666;-58
2023/01/07 01:28:04;;;;;;;9.43;6.47;;;;;;;;;;5080984;28;20205;-58
2023/01/07 01:30:32;;;;;;;8.07;6.20;;;;;;;;;;5081120;28;20261;-58
2023/01/07 01:33:00;;;;;;;8.70;6.47;;;;;;;;;;5080716;28;20608;-58
2023/01/07 01:35:28;;;;;;;6.87;5.90;;;;;;;;;;5080785;28;20260;-58
2023/01/07 01:37:56;;;;;;;9.77;6.60;;;;;;;;;;5080735;28;20659;-58
2023/01/07 01:40:28;;;;;;;7.80;6.47;;;;;;;;;;5080940;28;20238;-58
2023/01/07 01:42:56;;;;;;;8.13;7.03;;;;;;;;;;5073689;28;20752;-58
2023/01/07 01:45:25;;;;;;;8.03;6.73;;;;;;;;;;5078915;28;20260;-58
2023/01/07 01:47:55;;;;;;;14.33;6.83;;;;;;;;;;5079567;28;20207;-58
2023/01/07 01:50:25;;;;;;;7.20;6.03;;;;;;;;;;5080103;28;20275;-58
2023/01/07 01:52:55;;;;;;;7.93;5.67;;;;;;;;;;5080574;28;20225;-58
2023/01/07 01:55:25;;;;;;;7.00;5.80;;;;;;;;;;5073407;28;20210;-58
2023/01/07 01:57:55;;;;;;;7.80;5.90;;;;;;;;;;5080493;28;20248;-58
2023/01/07 02:00:25;;;;;;;8.00;5.80;;;;;;;;;;5080567;28;20210;-58
2023/01/07 02:02:56;;;;;;;7.40;6.10;;;;;;;;;;5080228;28;20592;-58
2023/01/07 02:05:25;;;;;;;7.70;5.57;;;;;;;;;;5079926;28;20222;-58
2023/01/07 02:07:53;;;;;;;7.33;5.57;;;;;;;;;;5080537;28;20206;-58
2023/01/07 02:10:22;;;;;;;7.97;6.07;;;;;;;;;;5080454;28;20285;-58
2023/01/07 02:12:57;;;;;;;8.50;6.10;;;;;;;;;;5080154;28;20685;-57
2023/01/07 02:15:33;;;;;;;8.03;6.47;;;;;;;;;;5080316;28;20205;-58
2023/01/07 02:18:11;;;;;;;9.53;6.10;;;;;;;;;;5080185;28;20312;-58
2023/01/07 02:20:46;;;;;;;9.47;6.20;;;;;;;;;;5079757;28;20201;-57
2023/01/07 02:23:29;;;;;;;11.37;7.37;;;;;;;;;;5080007;28;20228;-58
2023/01/07 02:26:19;;;;;;;9.90;6.80;;;;;;;;;;5068091;28;20711;-58
2023/01/07 02:29:00;;;;;;;9.63;6.47;;;;;;;;;;5080084;28;20685;-58
2023/01/07 02:31:36;;;;;;;7.67;6.60;;;;;;;;;;5080242;28;20210;-58
2023/01/07 02:34:07;;;;;;;8.87;6.70;;;;;;;;;;5079351;28;20238;-58
2023/01/07 02:36:37;;;;;;;7.07;5.63;;;;;;;;;;5080104;28;20681;-58
2023/01/07 02:39:15;;;;;;;7.37;6.10;;;;;;;;;;5079861;28;20285;-58
2023/01/07 02:41:48;;;;;;;6.70;6.00;;;;;;;;;;5080007;28;20205;-58
2023/01/07 02:44:20;;;;;;;8.13;5.77;;;;;;;;;;5079643;28;20232;-58
2023/01/07 02:46:51;;;;;;;7.57;5.23;;;;;;;;;;5079389;28;20217;-58
2023/01/07 02:49:20;;;;;;;7.57;5.77;;;;;;;;;;5079432;28;20210;-58
2023/01/07 02:51:50;;;;;;;7.17;5.70;;;;;;;;;;5079559;28;20206;-58
2023/01/07 02:54:21;;;;;;;8.57;5.97;;;;;;;;;;5079457;28;20312;-58
2023/01/07 02:57:09;;;;;;;6.50;5.60;;;;;;;;;;5079361;28;20198;-58
2023/01/07 02:59:45;;;;;;;6.10;5.50;;;;;;;;;;5079045;28;20765;-58
2023/01/07 03:02:19;;;;;;;7.50;5.70;;;;;;;;;;5079221;28;20657;-58
2023/01/07 03:04:58;;;;;;;7.10;5.30;;;;;;;;;;5079033;28;20218;-58
2023/01/07 03:07:33;;;;;;;6.60;5.27;;;;;;;;;;5079042;28;20212;-58
2023/01/07 03:10:03;;;;;;;7.30;5.40;;;;;;;;;;5079103;28;20198;-58
2023/01/07 03:12:33;;;;;;;7.47;5.30;;;;;;;;;;5079389;28;20202;-58
2023/01/07 03:15:04;;;;;;;8.73;6.73;;;;;;;;;;5079210;28;20210;-58
2023/01/07 03:17:37;;;;;;;8.43;6.40;;;;;;;;;;5078266;28;20213;-58
2023/01/07 03:20:07;;;;;;;7.77;5.80;;;;;;;;;;5078685;28;20252;-59
2023/01/07 03:22:36;;;;;;;7.93;5.80;;;;;;;;;;5078757;28;20554;-58
2023/01/07 03:25:05;;;;;;;7.87;6.47;;;;;;;;;;5078995;28;20237;-58
2023/01/07 03:27:35;;;;;;;7.23;6.53;;;;;;;;;;5078968;28;20210;-58
2023/01/07 03:30:04;;;;;;;8.13;6.30;;;;;;;;;;5078918;28;20198;-58
2023/01/07 03:32:38;;;;;;;11.33;6.63;;;;;;;;;;5078646;28;20234;-59
2023/01/07 03:35:08;;;;;;;9.30;6.37;;;;;;;;;;5078542;28;20209;-58
2023/01/07 03:37:36;;;;;;;10.23;7.40;;;;;;;;;;5078504;28;20283;-58
2023/01/07 03:40:08;;;;;;;10.67;7.87;;;;;;;;;;5078366;28;20724;-58
2023/01/07 03:42:40;;;;;;;9.97;7.47;;;;;;;;;;5078250;28;20229;-58
2023/01/07 03:45:11;;;;;;;9.47;6.90;;;;;;;;;;5078663;28;20288;-58
2023/01/07 03:47:40;;;;;;;9.90;7.17;;;;;;;;;;5078452;28;20228;-58
2023/01/07 03:50:10;;;;;;;8.17;6.77;;;;;;;;;;5077850;28;20202;-58
2023/01/07 03:52:38;;;;;;;8.33;6.30;;;;;;;;;;5078158;28;20226;-58
2023/01/07 03:55:06;;;;;;;10.43;6.27;;;;;;;;;;5075451;28;20204;-58
2023/01/07 03:57:34;;;;;;;8.27;7.13;;;;;;;;;;5072674;28;20206;-58
2023/01/07 04:00:03;;;;;;;9.73;6.80;;;;;;;;;;5078250;28;20226;-58
2023/01/07 04:02:31;;;;;;;9.53;7.17;;;;;;;;;;5078073;28;20740;-58
2023/01/07 04:04:59;;;;;;;8.13;6.33;;;;;;;;;;5069294;28;20514;-58
2023/01/07 04:07:28;;;;;;;7.03;5.97;;;;;;;;;;5076362;28;20213;-58
2023/01/07 04:09:56;;;;;;;9.33;7.37;;;;;;;;;;5078120;28;20649;-59
2023/01/07 04:12:24;;;;;;;9.33;6.17;;;;;;;;;;5077819;28;20568;-58
2023/01/07 04:14:52;;;;;;;6.97;5.13;;;;;;;;;;5078028;28;20206;-58
2023/01/07 04:17:20;;;;;;;6.03;4.97;;;;;;;;;;5078103;28;20279;-58
2023/01/07 04:19:48;;;;;;;6.80;5.23;;;;;;;;;;5077631;28;20265;-58
2023/01/07 04:22:16;;;;;;;5.87;4.87;;;;;;;;;;5077701;28;20238;-58
2023/01/07 04:24:46;;;;;;;5.80;4.90;;;;;;;;;;5077893;28;20217;-58
2023/01/07 04:27:14;;;;;;;5.17;4.47;;;;;;;;;;5077806;28;20670;-58
2023/01/07 04:29:42;;;;;;;7.53;4.47;;;;;;;;;;5077820;28;20293;-59
2023/01/07 04:32:10;;;;;;;5.00;3.97;;;;;;;;;;5077984;28;20293;-58
2023/01/07 04:34:38;;;;;;;7.80;4.13;;;;;;;;;;5077105;28;20241;-58
2023/01/07 04:37:06;;;;;;;4.70;3.80;;;;;;;;;;5077789;28;20216;-58
2023/01/07 04:39:34;;;;;;;3.57;2.73;;;;;;;;;;5077489;28;20252;-58
2023/01/07 04:42:03;;;;;;;2.90;2.70;;;;;;;;;;5077885;28;20210;-58
2023/01/07 04:44:31;;;;;;;3.03;2.73;;;;;;;;;;5077558;28;20236;-58
2023/01/07 04:46:59;;;;;;;2.90;2.60;;;;;;;;;;5077720;28;20699;-58
2023/01/07 04:49:27;;;;;;;3.73;2.57;;;;;;;;;;5077113;28;20638;-58
2023/01/07 04:51:55;;;;;;;3.50;2.60;;;;;;;;;;5077484;28;20245;-58
2023/01/07 04:54:23;;;;;;;3.00;2.60;;;;;;;;;;5077517;28;20226;-58
2023/01/07 04:56:51;;;;;;;5.27;2.70;;;;;;;;;;5077552;28;20229;-58
2023/01/07 04:59:20;;;;;;;2.67;2.47;;;;;;;;;;5077305;28;20214;-58
2023/01/07 05:01:48;;;;;;;3.83;2.60;;;;;;;;;;5077794;28;20206;-58
2023/01/07 05:04:16;;;;;;;3.40;2.90;;;;;;;;;;5077131;28;20709;-58
2023/01/07 05:06:45;;;;;;;4.70;2.70;;;;;;;;;;5077541;28;20209;-58
2023/01/07 05:09:13;;;;;;;3.03;2.73;;;;;;;;;;5077264;28;20217;-58
2023/01/07 05:11:41;;;;;;;3.03;2.60;;;;;;;;;;5077277;28;20206;-58
2023/01/07 05:14:11;;;;;;;3.10;2.80;;;;;;;;;;5077273;28;20588;-58
2023/01/07 05:16:40;;;;;;;6.33;2.80;;;;;;;;;;5063868;28;20210;-58
2023/01/07 05:19:09;;;;;;;2.77;2.57;;;;;;;;;;5077019;28;20294;-59
2023/01/07 05:21:37;;;;;;;3.03;2.43;;;;;;;;;;5077252;28;20624;-58
2023/01/07 05:24:05;;;;;;;2.60;2.40;;;;;;;;;;5077106;28;20230;-58
2023/01/07 05:26:33;;;;;;;3.50;3.03;;;;;;;;;;5077452;28;20216;-58
2023/01/07 05:29:01;;;;;;;2.67;2.47;;;;;;;;;;5077071;28;20265;-58
2023/01/07 05:31:29;;;;;;;2.90;2.63;;;;;;;;;;5077087;28;20210;-58
2023/01/07 05:33:59;;;;;;;2.97;2.77;;;;;;;;;;5076622;28;20238;-58
2023/01/07 05:36:26;;;;;;;2.80;2.60;;;;;;;;;;5077250;28;20241;-58
2023/01/07 05:38:55;;;;;;;2.73;2.33;;;;;;;;;;5077068;28;20206;-58
2023/01/07 05:41:23;;;;;;;2.73;2.53;;;;;;;;;;5078564;28;20284;-58
2023/01/07 05:43:51;;;;;;;3.87;3.30;;;;;;;;;;5080497;28;20708;-58
2023/01/07 05:46:19;;;;;;;2.97;2.63;;;;;;;;;;5080824;28;20208;-58
2023/01/07 05:48:47;;;;;;;2.53;2.30;;;;;;;;;;5080522;28;20670;-58
2023/01/07 05:51:16;;;;;;;3.10;2.80;;;;;;;;;;5080705;28;20206;-58
2023/01/07 05:53:44;;;;;;;3.33;2.90;;;;;;;;;;5080412;28;20230;-58
2023/01/07 05:56:12;;;;;;;3.13;2.70;;;;;;;;;;5080386;28;20257;-58
2023/01/07 05:58:40;;;;;;;4.97;2.60;;;;;;;;;;5080213;28;20238;-58
2023/01/07 06:01:08;;;;;;;3.23;2.90;;;;;;;;;;5080525;28;20262;-58
2023/01/07 06:03:36;;;;;;;3.43;2.93;;;;;;;;;;5080344;28;20258;-58
2023/01/07 06:06:06;;;;;;;3.03;2.83;;;;;;;;;;5069299;28;20290;-58
2023/01/07 06:08:36;;;;;;;3.57;2.67;;;;;;;;;;5080585;28;20206;-58
2023/01/07 06:11:05;;;;;;;3.43;2.63;;;;;;;;;;5080328;28;20285;-58
2023/01/07 06:13:33;;;;;;;3.90;2.73;;;;;;;;;;5080128;28;20230;-59
2023/01/07 06:16:01;;;;;;;3.10;2.80;;;;;;;;;;5080398;28;20245;-58
2023/01/07 06:18:29;;;;;;;4.43;2.80;;;;;;;;;;5080103;28;20213;-58
2023/01/07 06:20:57;;;;;;;2.97;2.30;;;;;;;;;;5079671;28;20226;-58
2023/01/07 06:23:26;;;;;;;3.00;2.70;;;;;;;;;;5079837;28;20280;-58
2023/01/07 06:25:55;;;;;;;4.40;3.03;;;;;;;;;;5079737;28;20658;-58
2023/01/07 06:28:23;;;;;;;3.27;2.70;;;;;;;;;;5079810;28;20711;-58
2023/01/07 06:30:51;;;;;;;3.60;3.00;;;;;;;;;;5079638;28;20206;-58
2023/01/07 06:33:19;;;;;;;4.37;2.87;;;;;;;;;;5079567;28;20692;-58
2023/01/07 06:35:47;;;;;;;8.23;3.27;;;;;;;;;;5079433;28;20240;-58
2023/01/07 06:38:15;;;;;;;3.70;3.07;;;;;;;;;;5080134;28;20244;-59
2023/01/07 06:40:44;;;;;;;3.97;3.20;;;;;;;;;;5079422;28;20268;-58
2023/01/07 06:43:13;;;;;;;3.33;3.03;;;;;;;;;;5079520;28;20309;-58
2023/01/07 06:45:41;;;;;;;4.87;4.37;;;;;;;;;;5076555;28;20263;-58
2023/01/07 06:48:09;;;;;;;4.90;3.40;;;;;;;;;;5071128;28;20599;-58
2023/01/07 06:50:37;;;;;;;4.87;3.30;;;;;;;;;;5076156;28;20209;-58
2023/01/07 06:53:05;;;;;;;4.40;3.00;;;;;;;;;;5070697;28;20291;-58
2023/01/07 06:55:33;;;;;;;3.70;2.83;;;;;;;;;;5075148;28;20202;-58
2023/01/07 06:58:01;;;;;;;3.50;3.20;;;;;;;;;;5079010;28;20719;-59
2023/01/07 07:00:31;;;;;;;3.30;3.00;;;;;;;;;;5079452;28;20222;-58
2023/01/07 07:02:59;;;;;;;4.87;3.37;;;;;;;;;;5079503;28;20233;-58
2023/01/07 07:05:28;;;;;;;4.30;3.50;;;;;;;;;;5078918;28;20241;-58
2023/01/07 07:07:57;;;;;;;3.40;2.97;;;;;;;;;;5078983;28;20216;-57
2023/01/07 07:10:25;;;;;;;4.17;3.20;;;;;;;;;;5079131;28;20210;-58
2023/01/07 07:12:53;;;;;;;4.87;3.03;;;;;;;;;;5079064;28;20221;-58
2023/01/07 07:15:21;;;;;;;5.03;3.03;;;;;;;;;;5078366;28;20308;-58
2023/01/07 07:17:50;;;;;;;5.70;2.83;;;;;;;;;;5078698;28;20210;-60
2023/01/07 07:20:18;;;;;;;2.57;2.37;;;;;;;;;;5078625;28;20206;-60
2023/01/07 07:22:47;;;;;;;2.70;2.50;;;;;;;;;;5078774;28;20233;-60
2023/01/07 07:25:15;;;;;;;3.17;2.60;;;;;;;;;;5078809;28;20293;-60
2023/01/07 07:27:44;;;;;;;2.80;2.60;;;;;;;;;;5078523;28;20297;-60
2023/01/07 07:30:13;;;;;;;3.33;3.03;;;;;;;;;;5076391;28;20214;-60
2023/01/07 07:32:41;;;;;;;4.03;2.50;;;;;;;;;;5066794;28;20697;-60
2023/01/07 07:35:11;;;;;;;3.37;2.43;;;;;;;;;;5078301;28;20208;-60
2023/01/07 07:37:39;;;;;;;4.77;2.80;;;;;;;;;;5078169;28;20206;-60
2023/01/07 07:40:08;;;;;;;3.00;2.50;;;;;;;;;;5078474;28;20207;-60
2023/01/07 07:42:37;;;;;;;6.13;2.53;;;;;;;;;;5078352;28;20269;-60
2023/01/07 07:45:25;;;;;;;1.90;1.80;;;;;;;;;;5064931;28;20214;-60
2023/01/07 07:47:53;;;;;;;2.87;2.60;;;;;;;;;;5078182;28;20665;-60
2023/01/07 07:50:22;;;;;;;2.67;2.47;;;;;;;;;;5077797;28;20641;-60
2023/01/07 07:52:50;;;;;;;2.60;2.40;;;;;;;;;;5078320;28;20222;-60
2023/01/07 07:55:18;;;;;;;4.37;2.20;;;;;;;;;;5078202;28;20199;-60
2023/01/07 07:57:53;;;;;;;2.70;2.47;;;;;;;;;;5078297;28;20213;-60
2023/01/07 08:00:21;;;;;;;2.70;2.27;;;;;;;;;;5078329;28;20206;-60
2023/01/07 08:02:49;;;;;;;2.43;2.10;;;;;;;;;;5077991;28;20772;-60
2023/01/07 08:05:17;;;;;;;1.90;1.80;;;;;;;;;;5077533;28;20320;-60
2023/01/07 08:07:47;;;;;;;3.10;2.10;;;;;;;;;;5068701;28;20206;-60
2023/01/07 08:10:15;;;;;;;2.73;2.00;;;;;;;;;;5076574;28;20619;-60
2023/01/07 08:12:43;;;;;;;2.67;2.00;;;;;;;;;;5078023;28;20276;-60
2023/01/07 08:15:11;;;;;;;1.90;1.80;;;;;;;;;;5077763;28;20264;-60
2023/01/07 08:17:39;;;;;;;2.20;2.00;;;;;;;;;;5077743;28;20720;-60
2023/01/07 08:20:07;;;;;;;2.77;2.20;;;;;;;;;;5077296;28;20634;-60
2023/01/07 08:22:35;;;;;;;2.67;2.40;;;;;;;;;;5077631;28;20222;-60
2023/01/07 08:25:05;;;;;;;2.87;2.67;;;;;;;;;;5077899;28;20221;-60
2023/01/07 08:27:33;;;;;;;2.70;2.23;;;;;;;;;;5077906;28;20205;-60
2023/01/07 08:30:01;;;;;;;2.53;2.07;;;;;;;;;;5077657;28;20255;-60
2023/01/07 08:32:29;;;;;;;2.60;2.40;;;;;;;;;;5077722;28;20198;-60
2023/01/07 08:35:00;;;;;;;3.07;2.27;;;;;;;;;;5077621;28;20237;-60
2023/01/07 08:37:29;;;;;;;3.40;2.70;;;;;;;;;;5077537;28;20570;-60
2023/01/07 08:39:59;;;;;;;4.13;2.70;;;;;;;;;;5077756;28;20210;-60
2023/01/07 08:42:30;;;;;;;4.60;2.80;;;;;;;;;;5077512;28;20265;-60
2023/01/07 08:44:58;;;;;;;3.40;3.07;;;;;;;;;;5070480;28;20208;-60
2023/01/07 08:47:27;;;;;;;3.03;2.73;;;;;;;;;;5077723;28;20241;-60
2023/01/07 08:49:55;;;;;;;4.93;3.03;;;;;;;;;;5077369;28;20217;-60
2023/01/07 08:52:23;;;;;;;3.60;3.30;;;;;;;;;;5077606;28;20230;-60
2023/01/07 08:54:51;;;;;;;3.00;2.80;;;;;;;;;;5077618;28;20209;-60
2023/01/07 08:57:19;;;;;;;3.87;3.30;;;;;;;;;;5077783;28;20206;-60
2023/01/07 08:59:49;;;;;;;3.17;2.83;;;;;;;;;;5077376;28;20234;-60
2023/01/07 09:02:18;;;;;;;3.27;2.97;;;;;;;;;;5077174;28;20268;-60
2023/01/07 09:04:46;;;;;;;4.23;3.37;;;;;;;;;;5077044;28;20242;-60
2023/01/07 09:07:14;;;;;;;3.37;3.07;;;;;;;;;;5077279;28;20684;-60
2023/01/07 09:09:43;;;;;;;5.43;3.50;;;;;;;;;;5077162;28;20206;-60
2023/01/07 09:12:11;;;;;;;3.50;3.20;;;;;;;;;;5077483;28;20202;-60
2023/01/07 09:14:39;;;;;;;3.60;3.40;;;;;;;;;;5077040;28;20701;-60
2023/01/07 09:17:08;;;;;;;6.20;5.03;;;;;;;;;;5079967;28;20237;-60
2023/01/07 09:19:36;;;;;;;4.30;3.63;;;;;;;;;;5080601;28;20384;-60
2023/01/07 09:22:04;;;;;;;3.50;3.20;;;;;;;;;;5081145;28;20226;-60
2023/01/07 09:24:32;;;;;;;3.40;3.10;;;;;;;;;;5080748;28;20768;-60
2023/01/07 09:27:00;;;;;;;3.50;3.20;;;;;;;;;;5080865;28;20210;-60
2023/01/07 09:29:28;;;;;;;4.37;4.00;;;;;;;;;;5080783;28;20783;-60
2023/01/07 09:31:56;;;;;;;4.00;3.57;;;;;;;;;;5081051;28;20206;-60
2023/01/07 09:34:25;;;;;;;6.73;2.93;;;;;;;;;;5080318;28;20276;-60
2023/01/07 09:36:53;;;;;;;3.97;3.57;;;;;;;;;;5080867;28;20259;-60
2023/01/07 09:39:21;;;;;;;4.10;3.70;;;;;;;;;;5080689;28;20674;-60
2023/01/07 09:41:55;;;;;;;4.23;3.47;;;;;;;;;;5080561;28;20206;-60
2023/01/07 09:44:27;;;;;;;3.57;3.27;;;;;;;;;;5080423;28;20257;-60
2023/01/07 09:46:56;;;;;;;4.00;3.67;;;;;;;;;;5080489;28;20234;-60
2023/01/07 09:49:25;;;;;;;4.40;3.70;;;;;;;;;;5080552;28;20288;-60
2023/01/07 09:51:57;;;;;;;3.37;3.17;;;;;;;;;;5080454;28;20689;-60
2023/01/07 09:54:28;;;;;;;5.10;3.10;;;;;;;;;;5080584;28;20222;-60
2023/01/07 09:56:56;;;;;;;3.23;3.00;;;;;;;;;;5080638;28;20206;-60
2023/01/07 09:59:24;;;;;;;4.00;3.37;;;;;;;;;;5080675;28;20216;-60
2023/01/07 10:01:54;;;;;;;2.97;2.63;;;;;;;;;;5080551;28;20210;-60
2023/01/07 10:04:28;;;;;;;2.77;2.50;;;;;;;;;;5080065;28;20226;-60
2023/01/07 10:07:02;;;;;;;3.70;2.50;;;;;;;;;;5080154;28;20225;-60
2023/01/07 10:09:36;;;;;;;4.37;2.30;;;;;;;;;;5080345;28;20214;-60
2023/01/07 10:12:06;;;;;;;2.90;2.60;;;;;;;;;;5080477;28;20202;-60
2023/01/07 10:14:43;;;;;;;2.70;2.50;;;;;;;;;;5080177;28;20254;-60
2023/01/07 10:17:18;;;;;;;2.20;2.00;;;;;;;;;;5080272;28;20202;-60
2023/01/07 10:19:49;;;;;;;2.77;2.30;;;;;;;;;;5080084;28;20286;-60
2023/01/07 10:22:22;;;;;;;2.27;2.10;;;;;;;;;;5079646;28;20314;-60
2023/01/07 10:24:53;;;;;;;2.00;1.90;;;;;;;;;;5079980;28;20288;-60
2023/01/07 10:27:28;;;;;;;2.43;2.00;;;;;;;;;;5080032;28;20233;-60
2023/01/07 10:29:57;;;;;;;6.17;2.13;;;;;;;;;;5080096;28;20202;-60
2023/01/07 10:32:28;;;;;;;1.83;1.73;;;;;;;;;;5079475;28;20198;-61
2023/01/07 10:34:57;;;;;;;2.10;2.00;;;;;;;;;;5079377;28;20293;-60
2023/01/07 10:37:29;;;;;;;3.77;2.83;;;;;;;;;;5079680;28;20723;-60
2023/01/07 10:40:03;;;;;;;1.83;1.73;;;;;;;;;;5079812;28;20213;-61
2023/01/07 10:42:33;;;;;;;2.27;1.90;;;;;;;;;;5079618;28;20249;-60
2023/01/07 10:45:18;;;;;;;4.30;2.10;;;;;;;;;;5071846;28;20661;-60
2023/01/07 10:48:00;;;;;;;2.00;1.80;;;;;;;;;;5079287;28;20572;-60
2023/01/07 10:50:46;;;;;;;3.10;2.17;;;;;;;;;;5078976;28;20206;-60
2023/01/07 10:53:21;;;;;;;2.00;1.90;;;;;;;;;;5079182;28;20253;-60
2023/01/07 10:55:53;;;;;;;2.83;1.60;;;;;;;;;;5079262;28;20293;-60
2023/01/07 10:58:21;;;;;;;2.63;2.13;;;;;;;;;;5077974;28;20210;-60
2023/01/07 11:00:49;;;;;;;3.03;2.03;;;;;;;;;;5071874;28;20234;-60
2023/01/07 11:03:20;;;;;;;2.00;1.87;;;;;;;;;;5075529;28;20233;-60
2023/01/07 11:05:51;;;;;;;2.50;2.30;;;;;;;;;;5078698;28;20238;-60
2023/01/07 11:08:25;;;;;;;3.30;2.27;;;;;;;;;;5078980;28;20652;-60
2023/01/07 11:10:53;;;;;;;2.47;2.10;;;;;;;;;;5079122;28;20638;-60
2023/01/07 11:13:23;;;;;;;2.50;2.30;;;;;;;;;;5078562;28;20317;-61
2023/01/07 11:15:53;;;;;;;2.10;1.90;;;;;;;;;;5078868;28;20308;-60
2023/01/07 11:18:21;;;;;;;7.07;3.50;;;;;;;;;;5079052;28;20206;-60
2023/01/07 11:20:50;;;;;;;8.40;4.83;;;;;;;;;;5078337;28;20549;-60
2023/01/07 11:23:19;;;;;;;9.63;4.57;;;;;;;;;;5078665;28;20230;-60
2023/01/07 11:25:49;;;;;;;4.90;3.30;;;;;;;;;;5078923;28;20293;-60
2023/01/07 11:28:18;;;;;;;4.40;2.80;;;;;;;;;;5078726;28;20316;-61
2023/01/07 11:30:55;;;;;;;5.43;2.80;;;;;;;;;;5078838;28;20320;-61
2023/01/07 11:33:25;;;;;;;2.97;2.77;;;;;;;;;;5078304;28;20598;-60
2023/01/07 11:36:13;;;;;;;2.43;2.17;;;;;;;;;;5078620;28;20253;-60
2023/01/07 11:38:41;;;;;;;3.73;2.77;;;;;;;;;;5077886;28;20210;-60
2023/01/07 11:41:19;;;;;;;5.17;2.60;;;;;;;;;;5078633;28;20210;-60
2023/01/07 11:43:48;;;;;;;3.20;2.50;;;;;;;;;;5074359;28;20283;-60
2023/01/07 11:46:17;;;;;;;7.27;2.70;;;;;;;;;;5071482;28;20727;-60
2023/01/07 11:48:51;;;;;;;3.67;2.63;;;;;;;;;;5078040;28;21052;-60
2023/01/07 11:51:21;;;;;;;2.07;1.90;;;;;;;;;;5078270;28;20239;-59
2023/01/07 11:53:54;;;;;;;2.93;2.30;;;;;;;;;;5078358;28;20218;-60
2023/01/07 11:56:31;;;;;;;3.07;2.10;;;;;;;;;;5078107;28;20285;-60
2023/01/07 11:59:22;;;;;;;2.10;1.90;;;;;;;;;;5078157;28;20577;-60
2023/01/07 12:01:51;;;;;;;2.17;1.97;;;;;;;;;;5078316;28;20256;-60
2023/01/07 12:04:22;;;;;;;3.40;2.30;;;;;;;;;;5077470;28;20237;-60
2023/01/07 12:06:52;;;;;;;2.17;1.97;;;;;;;;;;5078209;28;20294;-60
2023/01/07 12:09:24;;;;;;;2.83;2.40;;;;;;;;;;5077746;28;20658;-60
2023/01/07 12:11:55;;;;;;;2.27;2.07;;;;;;;;;;5078071;28;20210;-60
2023/01/07 12:14:25;;;;;;;2.40;2.20;;;;;;;;;;5078036;28;20309;-60
2023/01/07 12:16:53;;;;;;;3.10;2.43;;;;;;;;;;5077449;28;20202;-60
2023/01/07 12:19:30;;;;;;;2.90;2.10;;;;;;;;;;5077417;28;20232;-59
2023/01/07 12:22:12;;;;;;;2.40;2.10;;;;;;;;;;5076942;28;20240;-59
2023/01/07 12:24:58;;;;;;;2.37;2.17;;;;;;;;;;5066883;28;20229;-60
2023/01/07 12:27:31;;;;;;;2.73;2.13;;;;;;;;;;5074474;28;20198;-59
2023/01/07 12:30:06;;;;;;;4.10;2.50;;;;;;;;;;5067772;28;20204;-60
2023/01/07 12:32:39;;;;;;;2.83;2.03;;;;;;;;;;5065699;28;20238;-59
2023/01/07 12:35:12;;;;;;;2.53;2.33;;;;;;;;;;5066689;28;20247;-60
2023/01/07 12:37:43;;;;;;;3.43;2.20;;;;;;;;;;5076698;28;20209;-58
2023/01/07 12:40:18;;;;;;;2.37;2.17;;;;;;;;;;5073443;28;20206;-60
2023/01/07 12:42:50;;;;;;;3.87;2.60;;;;;;;;;;5063945;28;20721;-60
2023/01/07 12:45:21;;;;;;;2.97;2.37;;;;;;;;;;5059893;28;20245;-59
2023/01/07 12:47:53;;;;;;;2.40;2.20;;;;;;;;;;5058686;28;20800;-59
2023/01/07 12:50:24;;;;;;;4.43;1.93;;;;;;;;;;5062359;28;20198;-60
2023/01/07 12:52:55;;;;;;;4.33;2.67;;;;;;;;;;5066179;28;20237;-60
2023/01/07 12:55:26;;;;;;;3.27;2.13;;;;;;;;;;5061766;28;20226;-60
2023/01/07 12:58:05;;;;;;;2.53;2.03;;;;;;;;;;5067573;28;20210;-61
2023/01/07 13:00:36;;;;;;;3.07;2.47;;;;;;;;;;5062521;28;20217;-60
2023/01/07 13:03:10;;;;;;;4.83;2.30;;;;;;;;;;5062947;28;20231;-61
2023/01/07 13:05:42;;;;;;;2.50;2.30;;;;;;;;;;5077339;28;20222;-60
2023/01/07 13:08:12;;;;;;;4.93;2.00;;;;;;;;;;5081160;28;20289;-60
2023/01/07 13:10:41;;;;;;;2.77;2.00;;;;;;;;;;5081227;28;20236;-60
2023/01/07 13:13:13;;;;;;;2.47;2.20;;;;;;;;;;5080894;28;20618;-60
2023/01/07 13:15:41;;;;;;;1.70;1.60;;;;;;;;;;5080943;28;20662;-61
2023/01/07 13:18:13;;;;;;;3.33;2.17;;;;;;;;;;5080959;28;20206;-60
2023/01/07 13:20:47;;;;;;;2.10;2.00;;;;;;;;;;5080596;28;20202;-60
2023/01/07 13:23:19;;;;;;;2.50;2.30;;;;;;;;;;5081065;28;20272;-61
2023/01/07 13:25:52;;;;;;;2.20;2.00;;;;;;;;;;5081112;28;20226;-61
2023/01/07 13:28:28;;;;;;;3.47;2.00;;;;;;;;;;5080612;28;20244;-61
2023/01/07 13:31:11;;;;;;;3.37;2.30;;;;;;;;;;5080855;28;20719;-60
2023/01/07 13:33:43;;;;;;;2.07;1.93;;;;;;;;;;5080249;28;20250;-61
2023/01/07 13:36:19;;;;;;;4.83;2.07;;;;;;;;;;5080505;28;20228;-61
2023/01/07 13:38:57;;;;;;;2.10;1.90;;;;;;;;;;5080668;28;20211;-61
2023/01/07 13:41:34;;;;;;;2.53;2.00;;;;;;;;;;5080471;28;20206;-61
2023/01/07 13:44:09;;;;;;;3.60;2.13;;;;;;;;;;5080604;28;20234;-61
2023/01/07 13:46:39;;;;;;;3.27;1.87;;;;;;;;;;5080360;28;20233;-61
2023/01/07 13:49:21;;;;;;;1.87;1.77;;;;;;;;;;5080082;28;20668;-61
2023/01/07 13:51:49;;;;;;;2.97;2.33;;;;;;;;;;5080321;28;20343;-60
2023/01/07 13:54:32;;;;;;;2.23;2.03;;;;;;;;;;5080243;28;20260;-60
2023/01/07 13:57:20;;;;;;;2.30;1.80;;;;;;;;;;5080282;28;20569;-61
2023/01/07 13:59:51;;;;;;;3.40;1.90;;;;;;;;;;5080039;28;20274;-59
2023/01/07 14:02:20;;;;;;;2.13;1.83;;;;;;;;;;5079581;28;20567;-59
2023/01/07 14:04:49;;;;;;;1.80;1.67;;;;;;;;;;5079658;28;20233;-60
2023/01/07 14:07:18;;;;;;;2.70;1.90;;;;;;;;;;5080104;28;20727;-59
2023/01/07 14:09:46;;;;;;;2.10;1.83;;;;;;;;;;5080207;28;20233;-59
2023/01/07 14:12:30;;;;;;;1.93;1.70;;;;;;;;;;5080313;28;20296;-59
2023/01/07 14:15:11;;;;;;;2.37;1.60;;;;;;;;;;5080035;28;20212;-60
2023/01/07 14:17:43;;;;;;;2.10;1.40;;;;;;;;;;5079799;28;20298;-59
2023/01/07 14:20:14;;;;;;;1.70;1.60;;;;;;;;;;5079715;28;20228;-59
2023/01/07 14:22:45;;;;;;;4.03;2.00;;;;;;;;;;5080026;28;20230;-60
2023/01/07 14:25:27;;;;;;;3.40;1.70;;;;;;;;;;5079726;28;20234;-59
2023/01/07 14:28:16;;;;;;;3.57;1.73;;;;;;;;;;5075289;28;20645;-61
2023/01/07 14:30:47;;;;;;;1.60;1.50;;;;;;;;;;5080006;28;20214;-59
2023/01/07 14:33:18;;;;;;;1.67;1.30;;;;;;;;;;5079466;28;20317;-60
2023/01/07 14:35:53;;;;;;;2.23;1.50;;;;;;;;;;5079455;28;20293;-60
2023/01/07 14:38:40;;;;;;;5.43;2.40;;;;;;;;;;5079504;28;20216;-59
2023/01/07 14:41:09;;;;;;;1.40;1.23;;;;;;;;;;5079402;28;20206;-60
2023/01/07 14:44:00;;;;;;;1.93;1.60;;;;;;;;;;5079267;28;20222;-60
2023/01/07 14:46:46;;;;;;;3.10;1.60;;;;;;;;;;5074417;28;20262;-59
2023/01/07 14:49:32;;;;;;;2.13;1.93;;;;;;;;;;5078969;28;20210;-60
2023/01/07 14:52:03;;;;;;;2.43;1.93;;;;;;;;;;5066438;28;20212;-59
2023/01/07 14:54:48;;;;;;;1.97;1.80;;;;;;;;;;5079138;28;20713;-60
2023/01/07 14:57:20;;;;;;;3.07;1.90;;;;;;;;;;5079085;28;20210;-61
2023/01/07 15:00:18;;;;;;;1.70;1.60;;;;;;;;;;5073673;28;20206;-59
2023/01/07 15:03:08;;;;;;;2.10;2.00;;;;;;;;;;5027504;28;20261;-59
2023/01/07 15:05:48;;;;;;;3.37;1.80;;;;;;;;;;5065290;28;20548;-59